Time;durP1;ratioP1;P1;durP2;ratioP2;P2;SDS_P1;SDS_P2;PMS_P1;PMS_P2;Temp;Humidity;BMP_temperature;BMP_pressure;BME280_temperature;BME280_humidity;BME280_pressure;Samples;Min_cycle;Max_cycle;Signal;HPM_P1;HPM_P2
2021/03/26 00:01:00;;;;;;;;;;;;;;;28.59;21.38;101193.03;5098597;28;795;-58
2021/03/26 00:03:26;;;;;;;;;;;;;;;28.78;21.21;101196.25;5098767;28;1899;-33
2021/03/26 00:05:56;;;;;;;;;;;;;;;28.88;21.09;101191.38;5098203;28;1001;-32
2021/03/26 00:08:21;;;;;;;;;;;;;;;28.70;21.52;101187.16;5118872;28;747;-53
2021/03/26 00:10:46;;;;;;;;;;;;;;;28.27;21.57;101186.81;5118798;28;807;-30
2021/03/26 00:13:12;;;;;;;;;;;;;;;28.11;22.46;101181.31;5118327;28;779;-59
2021/03/26 00:15:37;;;;;;;;;;;;;;;28.30;21.98;101181.88;5118717;28;803;-36
2021/03/26 00:18:02;;;;;;;;;;;;;;;28.73;21.42;101184.09;5118858;28;803;-40
2021/03/26 00:20:28;;;;;;;;;;;;;;;28.91;21.68;101180.19;5118273;28;807;-45
2021/03/26 00:22:53;;;;;;;;;;;;;;;28.76;21.54;101182.03;5117364;28;1899;-31
2021/03/26 00:25:18;;;;;;;;;;;;;;;28.26;22.09;101174.31;5118532;28;740;-49
2021/03/26 00:27:43;;;;;;;;;;;;;;;28.05;22.33;101184.75;5118095;28;933;-32
2021/03/26 00:30:09;;;;;;;;;;;;;;;28.46;22.10;101185.53;5118421;28;779;-50
2021/03/26 00:32:35;;;;;;;;;;;;;;;28.77;21.92;101186.41;5115422;28;756;-33
2021/03/26 00:35:00;;;;;;;;;;;;;;;28.89;21.76;101176.84;5118287;28;779;-36
2021/03/26 00:37:26;;;;;;;;;;;;;;;28.64;21.78;101178.94;5117348;28;961;-48
2021/03/26 00:39:51;;;;;;;;;;;;;;;28.16;22.52;101179.97;5118077;28;751;-49
2021/03/26 00:42:16;;;;;;;;;;;;;;;28.24;22.64;101175.31;5117692;28;1094;-49
2021/03/26 00:44:42;;;;;;;;;;;;;;;28.72;22.10;101185.13;5118204;28;1906;-45
2021/03/26 00:47:07;;;;;;;;;;;;;;;28.33;20.99;101178.00;5117902;28;748;-57
2021/03/26 00:49:32;;;;;;;;;;;;;;;28.06;21.62;101175.59;5117732;28;855;-37
2021/03/26 00:51:57;;;;;;;;;;;;;;;27.81;22.60;101181.16;5116947;28;1000;-50
2021/03/26 00:54:23;;;;;;;;;;;;;;;27.62;22.77;101179.72;5117782;28;936;-33
2021/03/26 00:56:48;;;;;;;;;;;;;;;27.45;23.04;101178.94;5117692;28;762;-50
2021/03/26 00:59:13;;;;;;;;;;;;;;;27.38;22.90;101179.66;5117857;28;890;-43
2021/03/26 01:01:39;;;;;;;;;;;;;;;27.17;23.34;101180.22;5117688;28;798;-47
2021/03/26 01:04:04;;;;;;;;;;;;;;;27.09;23.31;101181.06;5117696;28;1980;-35
2021/03/26 01:06:29;;;;;;;;;;;;;;;27.02;24.20;101189.03;5116598;28;1020;-33
2021/03/26 01:08:54;;;;;;;;;;;;;;;26.71;24.43;101183.47;5117680;28;751;-34
2021/03/26 01:11:21;;;;;;;;;;;;;;;27.26;23.74;101189.97;5117576;28;903;-35
2021/03/26 01:13:47;;;;;;;;;;;;;;;27.38;23.24;101187.75;5117247;28;751;-33
2021/03/26 01:16:12;;;;;;;;;;;;;;;27.12;23.59;101188.00;5117599;28;763;-50
2021/03/26 01:18:40;;;;;;;;;;;;;;;27.06;23.72;101189.50;5117620;28;780;-45
2021/03/26 01:21:05;;;;;;;;;;;;;;;26.94;24.37;101183.63;5115723;28;969;-37
2021/03/26 01:23:31;;;;;;;;;;;;;;;26.77;24.20;101188.19;5117505;28;1898;-53
2021/03/26 01:25:56;;;;;;;;;;;;;;;27.17;24.17;101188.34;5117067;28;843;-31
2021/03/26 01:28:22;;;;;;;;;;;;;;;27.36;23.40;101186.25;5116890;28;748;-52
2021/03/26 01:30:47;;;;;;;;;;;;;;;27.07;23.36;101185.81;5116870;28;760;-49
2021/03/26 01:33:13;;;;;;;;;;;;;;;26.98;23.48;101182.25;5117483;28;807;-35
2021/03/26 01:35:39;;;;;;;;;;;;;;;26.89;24.30;101183.28;5116748;28;822;-32
2021/03/26 01:38:05;;;;;;;;;;;;;;;26.53;24.76;101182.63;5116004;28;958;-35
2021/03/26 01:40:30;;;;;;;;;;;;;;;27.09;24.08;101186.47;5117362;28;789;-35
2021/03/26 01:43:03;;;;;;;;;;;;;;;27.28;23.14;101180.88;5116372;28;1910;-42
2021/03/26 01:45:28;;;;;;;;;;;;;;;26.92;23.70;101185.66;5117333;28;779;-52
2021/03/26 01:47:53;;;;;;;;;;;;;;;26.88;23.76;101190.53;5117143;28;802;-34
2021/03/26 01:50:19;;;;;;;;;;;;;;;26.72;24.53;101183.31;5116252;28;855;-54
2021/03/26 01:52:45;;;;;;;;;;;;;;;27.14;24.07;101192.19;5116022;28;985;-61
2021/03/26 01:55:11;;;;;;;;;;;;;;;27.52;23.38;101188.03;5117027;28;855;-33
2021/03/26 01:57:36;;;;;;;;;;;;;;;27.36;23.59;101187.06;5116936;28;803;-47
2021/03/26 02:00:04;;;;;;;;;;;;;;;27.07;23.77;101193.06;5116997;28;812;-36
2021/03/26 02:02:30;;;;;;;;;;;;;;;26.94;23.70;101193.56;5117039;28;1968;-32
2021/03/26 02:04:55;;;;;;;;;;;;;;;26.56;24.85;101191.41;5116604;28;787;-45
2021/03/26 02:07:21;;;;;;;;;;;;;;;26.68;24.60;101190.03;5116213;28;961;-41
2021/03/26 02:09:46;;;;;;;;;;;;;;;27.51;23.46;101191.75;5116265;28;772;-38
2021/03/26 02:12:23;;;;;;;;;;;;;;;27.27;23.42;101196.22;5116373;28;819;-54
2021/03/26 02:15:11;;;;;;;;;;;;;;;26.96;24.09;101188.84;5098936;28;744;-32
2021/03/26 02:17:39;;;;;;;;;;;;;;;26.80;24.51;101187.00;5108060;28;1091;-30
2021/03/26 02:20:05;;;;;;;;;;;;;;;26.26;25.25;101189.13;5099085;28;801;-30
2021/03/26 02:22:30;;;;;;;;;;;;;;;27.51;23.45;101184.50;5115609;28;1898;-58
2021/03/26 02:24:56;;;;;;;;;;;;;;;27.16;24.04;101193.91;5097795;28;859;-31
2021/03/26 02:27:23;;;;;;;;;;;;;;;27.36;23.17;101205.97;5116161;28;914;-48
2021/03/26 02:29:48;;;;;;;;;;;;;;;26.99;23.99;101202.00;5116334;28;882;-32
2021/03/26 02:32:39;;;;;;;;;;;;;;;26.46;24.69;101199.66;5116734;28;858;-51
2021/03/26 02:35:12;;;;;;;;;;;;;;;26.56;24.61;101210.28;5113337;28;1835;-33
2021/03/26 02:37:38;;;;;;;;;;;;;;;27.18;23.77;101211.59;5115472;28;966;-49
2021/03/26 02:40:05;;;;;;;;;;;;;;;27.21;23.56;101207.75;5098052;28;1186;-34
2021/03/26 02:42:30;;;;;;;;;;;;;;;26.94;23.52;101217.88;5118705;28;1902;-58
2021/03/26 02:44:59;;;;;;;;;;;;;;;26.86;23.55;101211.47;5120432;28;755;-55
2021/03/26 02:47:30;;;;;;;;;;;;;;;26.88;24.05;101209.44;5120564;28;806;-31
2021/03/26 02:50:07;;;;;;;;;;;;;;;27.08;23.98;101208.25;5101671;28;882;-28
2021/03/26 02:52:41;;;;;;;;;;;;;;;27.64;22.86;101220.94;5119311;28;969;-58
2021/03/26 02:55:12;;;;;;;;;;;;;;;27.21;23.28;101224.75;5119778;28;818;-54
2021/03/26 02:57:45;;;;;;;;;;;;;;;26.90;23.67;101220.91;5120132;28;788;-58
2021/03/26 03:00:10;;;;;;;;;;;;;;;26.20;24.84;101222.19;5101957;28;783;-30
2021/03/26 03:02:35;;;;;;;;;;;;;;;26.04;25.20;101226.53;5119835;28;1902;-31
2021/03/26 03:05:11;;;;;;;;;;;;;;;27.30;23.53;101232.84;5102057;28;723;-54
2021/03/26 03:07:40;;;;;;;;;;;;;;;27.32;23.24;101226.28;5100750;28;958;-31
2021/03/26 03:10:15;;;;;;;;;;;;;;;26.96;23.01;101227.47;5101902;28;787;-49
2021/03/26 03:12:40;;;;;;;;;;;;;;;26.86;23.43;101230.34;5101482;28;828;-59
2021/03/26 03:15:08;;;;;;;;;;;;;;;26.87;23.94;101231.19;5101367;28;948;-30
2021/03/26 03:17:45;;;;;;;;;;;;;;;26.53;24.08;101228.50;5101482;28;863;-36
2021/03/26 03:20:19;;;;;;;;;;;;;;;27.36;23.17;101237.59;5119811;28;755;-30
2021/03/26 03:22:53;;;;;;;;;;;;;;;27.18;22.71;101238.63;5118438;28;1894;-32
2021/03/26 03:25:20;;;;;;;;;;;;;;;26.84;23.37;101234.25;5119544;28;739;-54
2021/03/26 03:28:05;;;;;;;;;;;;;;;26.75;23.62;101233.41;5119429;28;777;-33
2021/03/26 03:30:34;;;;;;;;;;;;;;;26.58;24.32;101236.09;5119032;28;1366;-55
2021/03/26 03:33:25;;;;;;;;;;;;;;;27.50;23.03;101236.00;5119420;28;887;-32
2021/03/26 03:35:53;;;;;;;;;;;;;;;27.14;22.91;101248.09;5095336;28;1185;-34
2021/03/26 03:38:24;;;;;;;;;;;;;;;26.99;23.12;101239.81;5080530;28;1169;-51
2021/03/26 03:40:51;;;;;;;;;;;;;;;26.78;23.90;101250.09;5098641;28;767;-53
2021/03/26 03:43:18;;;;;;;;;;;;;;;27.39;23.24;101248.03;5080424;28;1973;-57
2021/03/26 03:46:02;;;;;;;;;;;;;;;27.66;22.71;101250.50;5081043;28;801;-49
2021/03/26 03:48:38;;;;;;;;;;;;;;;27.48;22.81;101251.53;5098465;28;953;-32
2021/03/26 03:51:09;;;;;;;;;;;;;;;27.35;22.70;101252.94;5080611;28;1016;-32
2021/03/26 03:54:01;;;;;;;;;;;;;;;27.09;22.68;101259.38;5080189;28;938;-32
2021/03/26 03:56:30;;;;;;;;;;;;;;;27.01;23.91;101268.34;5095067;28;1238;-33
2021/03/26 03:58:59;;;;;;;;;;;;;;;26.19;21.82;101271.72;5080698;28;804;-37
2021/03/26 04:01:48;;;;;;;;;;;;;;;25.64;21.61;101266.63;5079987;28;838;-36
2021/03/26 04:04:37;;;;;;;;;;;;;;;25.12;21.17;101263.75;5090388;28;1960;-36
2021/03/26 04:07:02;;;;;;;;;;;;;;;25.07;21.39;101258.81;5090245;28;974;-36
2021/03/26 04:09:32;;;;;;;;;;;;;;;24.36;19.03;101264.03;5098136;28;764;-36
2021/03/26 04:11:58;;;;;;;;;;;;;;;24.01;19.62;101265.63;5080948;28;848;-33
2021/03/26 04:14:27;;;;;;;;;;;;;;;24.82;21.48;101271.22;5079555;28;855;-35
2021/03/26 04:16:56;;;;;;;;;;;;;;;24.85;20.91;101264.66;5098286;28;773;-34
2021/03/26 04:19:25;;;;;;;;;;;;;;;24.58;20.80;101268.16;5079829;28;1123;-34
2021/03/26 04:21:51;;;;;;;;;;;;;;;24.52;21.70;101267.91;5098681;28;958;-34
2021/03/26 04:24:21;;;;;;;;;;;;;;;24.56;21.50;101271.97;5080105;28;1972;-34
2021/03/26 04:26:54;;;;;;;;;;;;;;;24.41;20.39;101274.34;5080286;28;851;-38
2021/03/26 04:29:38;;;;;;;;;;;;;;;24.43;21.31;101277.72;5079923;28;732;-33
2021/03/26 04:32:05;;;;;;;;;;;;;;;23.87;19.77;101285.78;5097959;28;768;-39
2021/03/26 04:34:30;;;;;;;;;;;;;;;24.37;20.43;101283.72;5080527;28;801;-33
2021/03/26 04:36:56;;;;;;;;;;;;;;;24.05;19.70;101292.06;5080314;28;986;-33
2021/03/26 04:39:22;;;;;;;;;;;;;;;23.96;20.21;101291.13;5097731;28;735;-33
2021/03/26 04:41:58;;;;;;;;;;;;;;;23.84;18.89;101289.59;5079800;28;1183;-32
2021/03/26 04:44:42;;;;;;;;;;;;;;;24.57;19.68;101300.56;5079776;28;2026;-34
2021/03/26 04:47:09;;;;;;;;;;;;;;;24.18;18.86;101307.88;5097677;28;744;-33
2021/03/26 04:49:39;;;;;;;;;;;;;;;24.47;18.66;101311.41;5079629;28;764;-40
2021/03/26 04:52:15;;;;;;;;;;;;;;;25.00;17.84;101314.28;5080055;28;944;-37
2021/03/26 04:54:45;;;;;;;;;;;;;;;25.21;17.16;101329.25;5079527;28;740;-34
2021/03/26 04:57:15;;;;;;;;;;;;;;;25.06;16.81;101315.50;5096933;28;790;-42
2021/03/26 04:59:46;;;;;;;;;;;;;;;24.88;16.88;101323.56;5079322;28;788;-35
2021/03/26 05:02:11;;;;;;;;;;;;;;;24.93;16.58;101318.59;5078995;28;768;-54
2021/03/26 05:04:38;;;;;;;;;;;;;;;24.53;16.79;101308.09;5078587;28;1906;-50
2021/03/26 05:07:04;;;;;;;;;;;;;;;24.88;17.38;101307.41;5079967;28;959;-41
2021/03/26 05:09:31;;;;;;;;;;;;;;;25.14;18.81;101312.06;5097148;28;752;-34
2021/03/26 05:12:03;;;;;;;;;;;;;;;25.65;18.41;101320.34;5079433;28;784;-33
2021/03/26 05:14:33;;;;;;;;;;;;;;;25.95;18.18;101320.00;5079229;28;835;-35
2021/03/26 05:17:09;;;;;;;;;;;;;;;26.20;18.16;101322.81;5079040;28;838;-35
2021/03/26 05:19:40;;;;;;;;;;;;;;;25.74;18.81;101321.22;5078474;28;756;-35
2021/03/26 05:22:28;;;;;;;;;;;;;;;25.50;19.27;101317.38;5097444;28;974;-35
2021/03/26 05:24:54;;;;;;;;;;;;;;;26.03;18.93;101322.72;5097002;28;1902;-37
2021/03/26 05:27:19;;;;;;;;;;;;;;;26.28;18.84;101325.53;5079305;28;780;-35
2021/03/26 05:29:44;;;;;;;;;;;;;;;26.58;18.73;101326.97;5078950;28;850;-33
2021/03/26 05:32:11;;;;;;;;;;;;;;;26.09;19.49;101321.22;5078674;28;752;-34
2021/03/26 05:34:56;;;;;;;;;;;;;;;25.86;19.81;101321.81;5079210;28;776;-35
2021/03/26 05:37:51;;;;;;;;;;;;;;;25.10;20.83;101324.97;5079193;28;966;-33
2021/03/26 05:40:19;;;;;;;;;;;;;;;25.67;20.55;101325.59;5041984;28;1283;-33
2021/03/26 05:42:44;;;;;;;;;;;;;;;26.16;19.98;101327.66;5096556;28;1913;-50
2021/03/26 05:45:13;;;;;;;;;;;;;;;25.85;20.64;101333.59;5097165;28;806;-33
2021/03/26 05:48:17;;;;;;;;;;;;;;;26.07;20.25;101331.34;5096945;28;779;-33
2021/03/26 05:50:51;;;;;;;;;;;;;;;25.98;20.52;101340.38;5034421;28;1115;-33
2021/03/26 05:53:31;;;;;;;;;;;;;;;26.10;20.65;101338.25;5034098;28;892;-33
2021/03/26 05:56:15;;;;;;;;;;;;;;;25.75;21.08;101335.56;5073175;28;1020;-34
2021/03/26 05:58:40;;;;;;;;;;;;;;;26.56;20.05;101339.81;5096718;28;786;-45
2021/03/26 06:01:24;;;;;;;;;;;;;;;26.69;20.14;101337.47;5096320;28;752;-41
2021/03/26 06:04:08;;;;;;;;;;;;;;;26.28;20.50;101338.16;5096754;28;1894;-37
2021/03/26 06:06:55;;;;;;;;;;;;;;;26.23;20.86;101344.03;5096782;28;1005;-37
2021/03/26 06:09:39;;;;;;;;;;;;;;;26.52;20.51;101345.53;5077523;28;835;-38
2021/03/26 06:12:10;;;;;;;;;;;;;;;26.64;20.33;101342.53;5096762;28;772;-35
2021/03/26 06:14:54;;;;;;;;;;;;;;;26.38;20.54;101338.06;5096637;28;736;-34
2021/03/26 06:17:38;;;;;;;;;;;;;;;26.08;20.95;101340.25;5100904;28;788;-50
2021/03/26 06:20:15;;;;;;;;;;;;;;;26.04;21.21;101345.16;5100031;28;759;-33
2021/03/26 06:23:02;;;;;;;;;;;;;;;26.60;20.50;101350.09;5082581;28;1901;-34
2021/03/26 06:25:34;;;;;;;;;;;;;;;26.51;20.94;101357.31;5082799;28;783;-36
2021/03/26 06:28:18;;;;;;;;;;;;;;;26.70;20.60;101355.34;5100499;28;905;-35
2021/03/26 06:30:46;;;;;;;;;;;;;;;26.19;20.93;101352.63;5100035;28;506;-37
2021/03/26 06:33:11;;;;;;;;;;;;;;;25.88;21.70;101345.91;5100559;28;843;-43
2021/03/26 06:35:51;;;;;;;;;;;;;;;26.53;20.82;101358.00;5100509;28;751;-41
2021/03/26 06:38:25;;;;;;;;;;;;;;;26.55;20.87;101362.38;5119732;28;899;-39
2021/03/26 06:41:06;;;;;;;;;;;;;;;26.56;20.64;101367.63;5120596;28;838;-39
2021/03/26 06:43:31;;;;;;;;;;;;;;;26.41;21.00;101368.25;5120162;28;1906;-42
2021/03/26 06:46:14;;;;;;;;;;;;;;;26.22;21.52;101369.34;5120571;28;752;-37
2021/03/26 06:49:12;;;;;;;;;;;;;;;26.50;21.01;101369.13;5119920;28;732;-36
2021/03/26 06:51:37;;;;;;;;;;;;;;;26.62;20.90;101368.81;5084959;28;1323;-41
2021/03/26 06:54:09;;;;;;;;;;;;;;;26.57;20.72;101373.84;5120317;28;759;-44
2021/03/26 06:56:46;;;;;;;;;;;;;;;26.25;21.17;101381.63;5120482;28;806;-34
2021/03/26 06:59:31;;;;;;;;;;;;;;;26.18;21.76;101381.44;5120447;28;752;-41
2021/03/26 07:02:06;;;;;;;;;;;;;;;26.66;20.90;101378.25;5120567;28;775;-43
2021/03/26 07:04:31;;;;;;;;;;;;;;;26.52;20.86;101377.91;5120046;28;1957;-34
2021/03/26 07:07:22;;;;;;;;;;;;;;;26.26;21.40;101378.78;5119122;28;969;-36
2021/03/26 07:10:08;;;;;;;;;;;;;;;25.66;22.30;101377.75;5095448;28;1094;-38
2021/03/26 07:12:40;;;;;;;;;;;;;;;26.75;20.89;101377.28;5097656;28;882;-37
2021/03/26 07:15:26;;;;;;;;;;;;;;;26.78;21.15;101382.34;5087942;28;933;-41
2021/03/26 07:17:54;;;;;;;;;;;;;;;26.68;21.10;101378.09;5098751;28;914;-47
2021/03/26 07:20:39;;;;;;;;;;;;;;;26.23;21.46;101381.78;5099330;28;902;-45
2021/03/26 07:23:17;;;;;;;;;;;;;;;26.41;21.32;101380.88;5087643;28;1913;-36
2021/03/26 07:25:42;;;;;;;;;;;;;;;26.04;21.81;101381.03;5099251;28;852;-39
2021/03/26 07:28:10;;;;;;;;;;;;;;;26.71;21.04;101377.78;5097875;28;895;-33
2021/03/26 07:30:42;;;;;;;;;;;;;;;26.48;20.94;101387.31;5080434;28;1318;-37
2021/03/26 07:33:07;;;;;;;;;;;;;;;26.32;21.20;101389.94;5098492;28;860;-38
2021/03/26 07:35:38;;;;;;;;;;;;;;;26.68;20.90;101387.03;5099387;28;803;-37
2021/03/26 07:38:07;;;;;;;;;;;;;;;26.59;21.22;101388.03;5098899;28;957;-37
2021/03/26 07:40:38;;;;;;;;;;;;;;;26.39;21.47;101380.22;5098286;28;910;-39
2021/03/26 07:43:27;;;;;;;;;;;;;;;26.44;21.05;101387.81;5098463;28;1910;-44
2021/03/26 07:46:11;;;;;;;;;;;;;;;26.45;21.05;101387.66;5080764;28;954;-34
2021/03/26 07:48:40;;;;;;;;;;;;;;;26.52;21.21;101393.25;5097686;28;891;-35
2021/03/26 07:51:20;;;;;;;;;;;;;;;27.06;20.67;101396.59;5081390;28;856;-48
2021/03/26 07:53:51;;;;;;;;;;;;;;;26.67;20.71;101393.47;5099331;28;899;-39
2021/03/26 07:56:28;;;;;;;;;;;;;;;26.52;20.98;101387.84;5100210;28;851;-46
2021/03/26 07:59:26;;;;;;;;;;;;;;;26.70;21.19;101387.72;5100247;28;1149;-35
2021/03/26 08:01:58;;;;;;;;;;;;;;;26.68;21.11;101400.53;5067085;28;1106;-33
2021/03/26 08:04:25;;;;;;;;;;;;;;;25.91;21.55;101405.72;5075020;28;1975;-33
2021/03/26 08:07:03;;;;;;;;;;;;;;;26.75;20.86;101406.97;5099923;28;949;-36
2021/03/26 08:09:28;;;;;;;;;;;;;;;26.64;20.78;101400.00;5108334;28;915;-42
2021/03/26 08:11:58;;;;;;;;;;;;;;;26.62;21.12;101395.81;5093976;28;859;-37
2021/03/26 08:14:46;;;;;;;;;;;;;;;26.63;20.88;101394.78;5097993;28;846;-35
2021/03/26 08:17:22;;;;;;;;;;;;;;;26.20;21.31;101413.63;5100010;28;871;-47
2021/03/26 08:19:56;;;;;;;;;;;;;;;26.51;21.12;101407.72;5099968;28;934;-36
2021/03/26 08:22:54;;;;;;;;;;;;;;;26.87;20.72;101404.81;5116572;28;827;-34
2021/03/26 08:25:19;;;;;;;;;;;;;;;26.81;20.41;101407.34;5061865;28;1215;-41
2021/03/26 08:27:54;;;;;;;;;;;;;;;26.24;21.42;101409.63;5098522;28;811;-42
2021/03/26 08:30:38;;;;;;;;;;;;;;;26.11;21.80;101413.59;5096841;28;1103;-44
2021/03/26 08:33:23;;;;;;;;;;;;;;;25.79;21.84;101418.59;5115940;28;891;-40
2021/03/26 08:35:55;;;;;;;;;;;;;;;26.32;21.29;101417.75;5114778;28;1515;-43
2021/03/26 08:38:43;;;;;;;;;;;;;;;26.40;20.89;101416.97;5096025;28;820;-41
2021/03/26 08:41:14;;;;;;;;;;;;;;;26.17;21.48;101418.34;5075452;28;1130;-43
2021/03/26 08:43:39;;;;;;;;;;;;;;;26.02;21.59;101411.88;5077876;28;1960;-34
2021/03/26 08:46:09;;;;;;;;;;;;;;;25.90;21.78;101406.75;5078987;28;934;-37
2021/03/26 08:48:49;;;;;;;;;;;;;;;26.00;21.47;101414.72;5097001;28;871;-41
2021/03/26 08:51:18;;;;;;;;;;;;;;;26.00;21.38;101417.41;5096968;28;855;-36
2021/03/26 08:53:49;;;;;;;;;;;;;;;25.94;21.69;101411.81;5097534;28;872;-45
2021/03/26 08:56:33;;;;;;;;;;;;;;;25.91;21.59;101423.75;5097157;28;914;-38
2021/03/26 08:59:07;;;;;;;;;;;;;;;25.91;21.65;101427.28;5096574;28;895;-35
2021/03/26 09:01:35;;;;;;;;;;;;;;;26.19;20.34;101415.50;5097633;28;752;-42
2021/03/26 09:04:10;;;;;;;;;;;;;;;26.10;20.37;101413.75;5096425;28;1987;-43
2021/03/26 09:06:35;;;;;;;;;;;;;;;25.88;20.71;101426.75;5079097;28;936;-40
2021/03/26 09:09:00;;;;;;;;;;;;;;;26.35;21.12;101420.16;5096890;28;922;-36
2021/03/26 09:11:37;;;;;;;;;;;;;;;26.29;20.98;101415.38;5097309;28;871;-37
2021/03/26 09:14:02;;;;;;;;;;;;;;;26.27;21.27;101420.09;5077708;28;852;-34
2021/03/26 09:16:37;;;;;;;;;;;;;;;26.11;21.42;101412.75;5096609;28;843;-42
2021/03/26 09:19:03;;;;;;;;;;;;;;;26.04;19.98;101412.56;5075000;28;1023;-44
2021/03/26 09:21:42;;;;;;;;;;;;;;;25.50;19.93;101416.19;5091068;28;859;-39
2021/03/26 09:24:17;;;;;;;;;;;;;;;25.49;20.44;101420.72;5093870;28;1901;-41
2021/03/26 09:26:42;;;;;;;;;;;;;;;26.22;20.53;101431.34;5113166;28;875;-39
2021/03/26 09:29:28;;;;;;;;;;;;;;;26.14;20.71;101440.22;5113116;28;878;-37
2021/03/26 09:32:14;;;;;;;;;;;;;;;25.90;20.99;101432.84;5072484;28;1184;-41
2021/03/26 09:34:40;;;;;;;;;;;;;;;26.55;20.29;101435.22;5109712;28;873;-39
2021/03/26 09:37:08;;;;;;;;;;;;;;;26.45;19.98;101433.50;5084519;28;859;-37
2021/03/26 09:39:34;;;;;;;;;;;;;;;26.49;20.46;101431.34;5077034;28;891;-43
2021/03/26 09:42:05;;;;;;;;;;;;;;;26.54;20.16;101431.72;5075942;28;1243;-39
2021/03/26 09:44:34;;;;;;;;;;;;;;;26.63;20.20;101433.41;5075538;28;1914;-36
2021/03/26 09:47:01;;;;;;;;;;;;;;;26.67;20.18;101431.25;5076321;28;859;-37
2021/03/26 09:49:28;;;;;;;;;;;;;;;26.47;20.30;101433.34;5077585;28;859;-36
2021/03/26 09:51:53;;;;;;;;;;;;;;;26.41;20.63;101424.03;5078095;28;931;-42
2021/03/26 09:54:25;;;;;;;;;;;;;;;26.31;20.45;101429.53;5095839;28;888;-42
2021/03/26 09:57:09;;;;;;;;;;;;;;;26.16;20.87;101423.88;5095691;28;1423;-42
2021/03/26 09:59:43;;;;;;;;;;;;;;;25.65;21.24;101436.22;5096653;28;930;-42
2021/03/26 10:02:08;;;;;;;;;;;;;;;26.10;21.08;101435.31;5077086;28;899;-41
2021/03/26 10:04:42;;;;;;;;;;;;;;;26.41;20.47;101432.13;5095013;28;1999;-32
2021/03/26 10:07:31;;;;;;;;;;;;;;;26.41;20.36;101424.03;5078630;28;994;-40
2021/03/26 10:12:48;;;;;;;;;;;;;;;26.03;19.45;101429.72;5096187;28;863;-36
2021/03/26 10:15:40;;;;;;;;;;;;;;;25.94;20.57;101425.28;5077237;28;871;-36
2021/03/26 10:18:13;;;;;;;;;;;;;;;25.80;20.19;101430.25;5091427;28;1674;-37
2021/03/26 10:20:38;;;;;;;;;;;;;;;25.63;20.67;101418.50;5077693;28;876;-38
2021/03/26 10:23:05;;;;;;;;;;;;;;;25.42;21.11;101428.56;5112921;28;1902;-37
2021/03/26 10:25:43;;;;;;;;;;;;;;;25.34;21.21;101425.78;5082226;28;887;-37
2021/03/26 10:28:20;;;;;;;;;;;;;;;25.12;21.50;101419.91;5111362;28;852;-39
2021/03/26 10:30:52;;;;;;;;;;;;;;;25.07;21.52;101428.41;5112518;28;875;-42
2021/03/26 10:33:18;;;;;;;;;;;;;;;25.10;21.42;101424.59;5076135;28;872;-40
2021/03/26 10:36:09;;;;;;;;;;;;;;;25.11;21.38;101428.94;5077710;28;871;-36
2021/03/26 10:38:37;;;;;;;;;;;;;;;24.90;21.49;101434.59;5077393;28;874;-36
2021/03/26 10:41:07;;;;;;;;;;;;;;;24.93;21.54;101435.19;5095840;28;883;-37
2021/03/26 10:43:49;;;;;;;;;;;;;;;24.91;21.56;101426.41;5092763;28;1914;-37
2021/03/26 10:46:18;;;;;;;;;;;;;;;24.79;21.67;101427.59;5075021;28;867;-37
2021/03/26 10:49:01;;;;;;;;;;;;;;;24.99;21.82;101420.25;5075229;28;852;-40
2021/03/26 10:51:32;;;;;;;;;;;;;;;24.78;22.01;101426.72;5094250;28;899;-40
2021/03/26 10:54:00;;;;;;;;;;;;;;;25.15;21.44;101421.44;5100133;28;851;-36
2021/03/26 10:56:44;;;;;;;;;;;;;;;25.42;21.05;101412.41;5105243;28;864;-38
2021/03/26 10:59:13;;;;;;;;;;;;;;;25.58;21.09;101410.00;5105731;28;1143;-35
2021/03/26 11:01:39;;;;;;;;;;;;;;;25.56;21.03;101424.47;5077595;28;958;-35
2021/03/26 11:04:10;;;;;;;;;;;;;;;25.80;20.86;101423.00;5094797;28;1913;-35
2021/03/26 11:06:36;;;;;;;;;;;;;;;25.90;20.71;101422.91;5098964;28;907;-35
2021/03/26 11:09:04;;;;;;;;;;;;;;;25.72;20.89;101420.25;5099460;28;755;-41
2021/03/26 11:11:34;;;;;;;;;;;;;;;25.91;20.61;101423.75;5097548;28;895;-35
2021/03/26 11:14:03;;;;;;;;;;;;;;;25.87;20.83;101425.06;5081182;28;888;-35
2021/03/26 11:16:28;;;;;;;;;;;;;;;25.87;20.71;101411.59;5095055;28;905;-35
2021/03/26 11:18:57;;;;;;;;;;;;;;;25.76;20.64;101410.84;5097377;28;1145;-34
2021/03/26 11:21:22;;;;;;;;;;;;;;;25.92;20.59;101403.88;5079466;28;872;-42
2021/03/26 11:23:57;;;;;;;;;;;;;;;26.07;20.57;101414.94;5080708;28;1898;-35
2021/03/26 11:26:23;;;;;;;;;;;;;;;26.14;20.54;101415.13;5079956;28;951;-39
2021/03/26 11:28:54;;;;;;;;;;;;;;;26.14;20.52;101415.13;5098500;28;999;-35
2021/03/26 11:31:30;;;;;;;;;;;;;;;26.19;20.40;101411.94;5099227;28;1166;-35
2021/03/26 11:34:14;;;;;;;;;;;;;;;26.29;20.02;101423.47;5079991;28;864;-35
2021/03/26 11:36:39;;;;;;;;;;;;;;;26.32;20.17;101415.06;5102929;28;946;-36
2021/03/26 11:39:17;;;;;;;;;;;;;;;26.50;20.09;101412.28;5076176;28;919;-34
2021/03/26 11:41:44;;;;;;;;;;;;;;;26.51;20.12;101415.81;5102938;28;1125;-35
2021/03/26 11:44:11;;;;;;;;;;;;;;;25.87;17.53;101415.16;5091742;28;1973;-35
2021/03/26 11:46:43;;;;;;;;;;;;;;;25.19;16.33;101398.59;5081071;28;962;-40
2021/03/26 11:49:19;;;;;;;;;;;;;;;25.00;16.47;101407.66;5076679;28;888;-35
2021/03/26 11:52:01;;;;;;;;;;;;;;;24.92;16.21;101400.34;5075709;28;860;-38
2021/03/26 11:54:27;;;;;;;;;;;;;;;24.74;18.17;101405.66;5103669;28;923;-42
2021/03/26 11:56:58;;;;;;;;;;;;;;;24.34;18.65;101397.78;5099946;28;919;-34
2021/03/26 11:59:42;;;;;;;;;;;;;;;24.08;17.11;101406.50;5095695;28;932;-43
2021/03/26 12:02:16;;;;;;;;;;;;;;;24.84;19.50;101409.13;5105871;28;901;-39
2021/03/26 12:04:53;;;;;;;;;;;;;;;24.66;20.59;101411.78;5096750;28;1905;-33
2021/03/26 12:07:24;;;;;;;;;;;;;;;24.76;19.90;101404.50;5104672;28;865;-40
2021/03/26 12:09:58;;;;;;;;;;;;;;;24.75;18.69;101392.06;5083119;28;876;-42
2021/03/26 12:12:25;;;;;;;;;;;;;;;24.49;19.70;101395.44;5082056;28;847;-38
2021/03/26 12:15:03;;;;;;;;;;;;;;;25.01;20.56;101395.88;5080170;28;876;-38
2021/03/26 12:17:33;;;;;;;;;;;;;;;24.71;17.87;101387.97;5097951;28;858;-36
2021/03/26 12:19:59;;;;;;;;;;;;;;;24.54;18.89;101392.34;5080085;28;807;-39
2021/03/26 12:22:28;;;;;;;;;;;;;;;24.50;19.67;101399.00;5080831;28;962;-36
2021/03/26 12:24:56;;;;;;;;;;;;;;;24.73;20.97;101385.97;5096747;28;1901;-35
2021/03/26 12:27:27;;;;;;;;;;;;;;;25.01;21.07;101398.56;5100620;28;872;-45
2021/03/26 12:29:53;;;;;;;;;;;;;;;24.72;21.04;101383.44;5093591;28;911;-40
2021/03/26 12:32:20;;;;;;;;;;;;;;;24.72;19.47;101394.19;5109779;28;935;-35
2021/03/26 12:34:49;;;;;;;;;;;;;;;24.72;18.90;101387.00;5092986;28;851;-36
2021/03/26 12:37:15;;;;;;;;;;;;;;;25.27;20.09;101389.72;5117203;28;945;-37
2021/03/26 12:39:42;;;;;;;;;;;;;;;24.99;18.76;101369.09;5084090;28;892;-35
2021/03/26 12:42:18;;;;;;;;;;;;;;;24.89;20.20;101388.00;5092666;28;1159;-48
2021/03/26 12:44:43;;;;;;;;;;;;;;;24.80;20.18;101381.69;5106441;28;1910;-36
2021/03/26 12:47:21;;;;;;;;;;;;;;;24.99;20.74;101389.81;5100062;28;911;-35
2021/03/26 12:49:46;;;;;;;;;;;;;;;25.01;21.07;101385.09;5109305;28;863;-41
2021/03/26 12:52:21;;;;;;;;;;;;;;;25.06;21.00;101380.09;5097229;28;946;-37
2021/03/26 12:55:10;;;;;;;;;;;;;;;25.41;20.56;101381.09;5109557;28;891;-34
2021/03/26 12:57:54;;;;;;;;;;;;;;;25.88;20.06;101373.69;5087428;28;1506;-35
2021/03/26 13:00:31;;;;;;;;;;;;;;;25.33;20.77;101378.34;5118010;28;842;-45
2021/03/26 13:02:58;;;;;;;;;;;;;;;25.33;20.72;101381.03;5113669;28;1894;-36
2021/03/26 13:05:29;;;;;;;;;;;;;;;25.50;20.49;101392.78;5099609;28;784;-34
2021/03/26 13:08:09;;;;;;;;;;;;;;;25.23;21.00;101397.28;5114251;28;994;-29
2021/03/26 13:10:37;;;;;;;;;;;;;;;24.98;21.34;101390.78;5108374;28;883;-30
2021/03/26 13:13:21;;;;;;;;;;;;;;;25.44;20.93;101386.16;5096267;28;871;-44
2021/03/26 13:16:05;;;;;;;;;;;;;;;25.84;20.39;101382.28;5115073;28;1144;-33
2021/03/26 13:18:30;;;;;;;;;;;;;;;25.79;20.50;101385.44;5117130;28;747;-35
2021/03/26 13:21:12;;;;;;;;;;;;;;;26.08;20.42;101391.50;5099555;28;939;-33
2021/03/26 13:23:38;;;;;;;;;;;;;;;26.19;20.35;101385.84;5091000;28;1968;-30